Time;durP1;ratioP1;P1;durP2;ratioP2;P2;SDS_P1;SDS_P2;PMS_P1;PMS_P2;Temp;Humidity;BMP_temperature;BMP_pressure;BME280_temperature;BME280_humidity;BME280_pressure;Samples;Min_cycle;Max_cycle;Signal;HPM_P1;HPM_P2
2022/11/30 00:01:42;;;;;;;61.33;51.55;;;;;;;5.29;100.00;101866.75;5035715;28;20057;-82
2022/11/30 00:04:09;;;;;;;65.15;58.03;;;;;;;4.39;100.00;101880.28;5027717;28;20038;-81
2022/11/30 00:06:35;;;;;;;67.93;52.10;;;;;;;4.44;100.00;101868.38;5030241;28;20078;-84
2022/11/30 00:09:02;;;;;;;70.65;56.55;;;;;;;4.50;100.00;101873.09;5031477;28;20049;-84
2022/11/30 00:11:29;;;;;;;66.40;52.75;;;;;;;4.45;100.00;101888.47;5035059;28;20041;-82
2022/11/30 00:13:56;;;;;;;56.63;46.80;;;;;;;4.91;100.00;101878.22;5028537;28;20074;-82
2022/11/30 00:16:26;;;;;;;63.08;53.85;;;;;;;4.47;100.00;101889.16;5029598;28;20551;-83
2022/11/30 00:18:52;;;;;;;75.38;54.08;;;;;;;4.61;100.00;101876.56;5022918;28;20060;-81
2022/11/30 00:21:19;;;;;;;71.15;55.58;;;;;;;4.27;100.00;101884.84;5023002;28;20050;-81
2022/11/30 00:23:47;;;;;;;67.22;51.70;;;;;;;4.19;100.00;101887.31;5029083;28;20045;-82
2022/11/30 00:26:16;;;;;;;61.97;51.55;;;;;;;4.95;100.00;101874.31;5026492;28;20056;-83
2022/11/30 00:28:44;;;;;;;67.88;58.47;;;;;;;4.58;100.00;101880.31;5022737;28;20042;-82
2022/11/30 00:31:13;;;;;;;69.00;60.97;;;;;;;4.28;100.00;101878.59;5030543;28;20395;-84
2022/11/30 00:33:42;;;;;;;64.45;54.50;;;;;;;4.41;100.00;101881.78;5029909;28;20449;-83
2022/11/30 00:36:11;;;;;;;68.95;51.25;;;;;;;4.07;100.00;101887.41;5033777;28;20398;-84
2022/11/30 00:38:38;;;;;;;60.72;47.22;;;;;;;4.48;100.00;101887.34;5030018;28;20530;-83
2022/11/30 00:41:06;;;;;;;68.00;51.17;;;;;;;4.18;100.00;101877.78;5026402;28;20111;-83
2022/11/30 00:43:32;;;;;;;69.93;56.92;;;;;;;4.41;100.00;101878.34;5030156;28;20045;-82
2022/11/30 00:46:01;;;;;;;63.50;49.08;;;;;;;4.04;100.00;101884.22;5029221;28;20045;-84
2022/11/30 00:48:30;;;;;;;62.08;49.22;;;;;;;4.00;100.00;101878.41;5029968;28;20115;-82
2022/11/30 00:50:58;;;;;;;70.72;50.30;;;;;;;3.97;100.00;101873.44;5029246;28;20132;-83
2022/11/30 00:53:25;;;;;;;75.63;53.50;;;;;;;4.11;100.00;101874.84;5025087;28;20060;-82
2022/11/30 00:55:52;;;;;;;80.18;56.78;;;;;;;4.12;100.00;101869.44;5023812;28;20041;-82
2022/11/30 00:58:19;;;;;;;82.40;57.25;;;;;;;4.17;100.00;101869.03;5033293;28;20050;-82
2022/11/30 01:00:46;;;;;;;74.93;52.97;;;;;;;4.21;100.00;101857.28;5046507;23;20072;-91
2022/11/30 01:03:13;;;;;;;66.00;50.15;;;;;;;4.03;100.00;101859.75;5059234;28;20049;-91
2022/11/30 01:05:42;;;;;;;73.38;54.10;;;;;;;3.96;100.00;101855.16;5063675;28;20049;-92
2022/11/30 01:08:12;;;;;;;84.57;58.28;;;;;;;4.07;100.00;101853.25;5067526;28;20045;-91
2022/11/30 01:10:41;;;;;;;76.68;55.13;;;;;;;3.96;100.00;101850.72;5064061;28;20045;-92
2022/11/30 01:13:09;;;;;;;80.38;50.45;;;;;;;3.98;100.00;101845.34;5080435;28;20055;-92
2022/11/30 01:15:37;;;;;;;80.25;52.10;;;;;;;4.19;100.00;101855.75;5065083;28;20108;-91
2022/11/30 01:18:03;;;;;;;90.22;55.70;;;;;;;3.82;100.00;101844.06;5068514;28;20053;-91
2022/11/30 01:20:30;;;;;;;85.57;55.47;;;;;;;3.74;100.00;101845.69;5063517;28;20041;-92
2022/11/30 01:22:57;;;;;;;104.85;64.55;;;;;;;3.81;100.00;101839.78;5067567;28;20052;-91
2022/11/30 01:25:25;;;;;;;85.53;51.35;;;;;;;4.33;100.00;101840.41;5070436;28;20064;-92
2022/11/30 01:27:52;;;;;;;85.38;52.20;;;;;;;4.04;100.00;101839.53;5069448;28;20068;-92
2022/11/30 01:30:19;;;;;;;90.30;55.17;;;;;;;3.82;100.00;101824.84;5063172;28;20068;-94
2022/11/30 01:32:48;;;;;;;82.03;51.35;;;;;;;3.96;100.00;101820.97;5060756;28;20052;-92
2022/11/30 01:35:15;;;;;;;91.03;60.05;;;;;;;4.61;100.00;101816.88;5055516;28;20045;-92
2022/11/30 01:37:43;;;;;;;87.97;61.33;;;;;;;4.25;100.00;101821.84;5065538;28;20040;-92
2022/11/30 01:40:11;;;;;;;87.75;55.70;;;;;;;3.92;100.00;101817.78;5063289;28;20038;-92
2022/11/30 01:42:46;;;;;;;75.82;52.72;;;;;;;4.33;100.00;101798.31;5067251;28;20045;-92
2022/11/30 01:45:14;;;;;;;84.70;57.00;;;;;;;3.89;100.00;101800.50;5064536;28;20105;-92
2022/11/30 01:47:43;;;;;;;84.60;58.55;;;;;;;4.59;100.00;101795.13;5066346;28;20041;-91
2022/11/30 01:50:15;;;;;;;74.22;61.13;;;;;;;5.13;100.00;101801.50;5064617;28;20070;-90
2022/11/30 01:52:45;;;;;;;78.25;60.65;;;;;;;4.51;100.00;101813.41;5063345;28;20028;-91
2022/11/30 01:55:18;;;;;;;75.65;56.03;;;;;;;3.97;100.00;101807.72;5063057;28;20055;-92
2022/11/30 01:57:50;;;;;;;79.78;58.00;;;;;;;4.43;100.00;101816.72;5066094;28;20072;-92
2022/11/30 02:00:18;;;;;;;77.25;58.97;;;;;;;4.10;100.00;101824.03;5062570;28;20045;-92
2022/11/30 02:02:52;;;;;;;77.13;58.75;;;;;;;4.24;100.00;101828.09;5066497;28;20030;-92
2022/11/30 02:05:21;;;;;;;72.22;53.10;;;;;;;3.96;100.00;101839.38;5068520;28;20045;-92
2022/11/30 02:07:48;;;;;;;79.18;55.20;;;;;;;3.78;100.00;101832.16;5063445;28;20136;-91
2022/11/30 02:10:17;;;;;;;77.68;54.15;;;;;;;3.69;100.00;101838.19;5062664;28;20041;-91
2022/11/30 02:13:09;;;;;;;73.70;51.58;;;;;;;4.40;100.00;101827.53;5064986;28;21465;-91
2022/11/30 02:15:46;;;;;;;78.80;59.08;;;;;;;4.05;100.00;101828.03;5065303;28;20581;-92
2022/11/30 02:18:24;;;;;;;90.00;58.85;;;;;;;3.94;100.00;101828.19;5061625;28;20049;-91
2022/11/30 02:21:00;;;;;;;70.40;51.15;;;;;;;4.28;100.00;101847.06;5062186;28;20029;-91
2022/11/30 02:23:52;;;;;;;80.88;55.33;;;;;;;4.17;100.00;101849.78;5061616;28;20109;-94
2022/11/30 02:26:34;;;;;;;81.05;57.80;;;;;;;4.49;100.00;101847.75;5068364;28;20049;-94
2022/11/30 02:29:22;;;;;;;81.47;57.35;;;;;;;3.82;100.00;101861.63;5062913;28;20053;-90
2022/11/30 02:31:56;;;;;;;86.82;57.55;;;;;;;4.52;100.00;101858.00;5059025;28;20045;-91
2022/11/30 02:34:28;;;;;;;78.25;53.72;;;;;;;4.21;100.00;101848.56;5058571;28;20084;-91
2022/11/30 02:36:57;;;;;;;72.30;62.47;;;;;;;4.08;100.00;101848.81;5063568;28;20052;-94
2022/11/30 02:39:23;;;;;;;70.22;61.40;;;;;;;4.61;100.00;101839.72;5063156;28;20041;-94
2022/11/30 02:41:50;;;;;;;66.50;56.97;;;;;;;3.79;100.00;101840.88;5062727;28;20055;-94
2022/11/30 02:44:19;;;;;;;67.32;52.45;;;;;;;3.95;100.00;101841.19;5061312;28;20060;-91
2022/11/30 02:47:07;;;;;;;57.90;47.53;;;;;;;4.01;100.00;101840.63;5058843;28;20065;-92
2022/11/30 02:49:41;;;;;;;62.45;52.35;;;;;;;4.17;100.00;101839.28;5065647;28;20048;-93
2022/11/30 02:52:10;;;;;;;65.25;55.10;;;;;;;4.19;100.00;101830.28;5062241;28;20021;-91
2022/11/30 02:54:37;;;;;;;60.42;54.25;;;;;;;4.65;100.00;101820.03;5063334;28;20033;-93
2022/11/30 02:57:09;;;;;;;65.30;58.13;;;;;;;4.19;100.00;101837.34;5064476;28;20048;-91
2022/11/30 02:59:36;;;;;;;53.80;48.00;;;;;;;4.74;100.00;101832.34;5062206;28;20041;-94
2022/11/30 03:02:05;;;;;;;59.35;51.30;;;;;;;3.87;100.00;101836.63;5055985;23;20127;-82
2022/11/30 03:04:32;;;;;;;58.38;52.15;;;;;;;4.03;100.00;101836.09;5045938;28;20051;-84
2022/11/30 03:06:59;;;;;;;62.60;55.95;;;;;;;3.86;100.00;101840.19;5045577;28;20099;-82
2022/11/30 03:09:25;;;;;;;66.05;59.17;;;;;;;3.77;100.00;101846.25;5041860;28;20500;-83
2022/11/30 03:11:52;;;;;;;57.08;50.60;;;;;;;3.80;100.00;101847.78;5049777;28;20072;-85
2022/11/30 03:14:19;;;;;;;60.78;53.22;;;;;;;3.82;100.00;101859.81;5047338;28;20476;-84
2022/11/30 03:16:46;;;;;;;65.07;55.78;;;;;;;4.06;100.00;101870.00;5049475;28;20468;-82
2022/11/30 03:19:15;;;;;;;73.97;61.30;;;;;;;4.15;100.00;101855.22;5044693;28;20115;-82
2022/11/30 03:21:41;;;;;;;77.70;69.80;;;;;;;3.61;100.00;101856.44;5049377;28;20049;-82
2022/11/30 03:24:08;;;;;;;63.85;54.63;;;;;;;3.55;100.00;101851.72;5048341;28;20041;-84
2022/11/30 03:26:35;;;;;;;62.72;50.45;;;;;;;3.65;100.00;101858.66;5048234;28;20045;-83
2022/11/30 03:29:02;;;;;;;66.47;53.55;;;;;;;4.44;100.00;101851.75;5042909;28;20045;-85
2022/11/30 03:31:29;;;;;;;59.85;51.95;;;;;;;4.33;100.00;101864.09;5045526;28;20056;-83
2022/11/30 03:33:56;;;;;;;77.75;69.65;;;;;;;4.28;100.00;101863.66;5050364;28;20374;-83
2022/11/30 03:36:24;;;;;;;68.00;59.00;;;;;;;3.70;100.00;101855.63;5051559;28;20052;-83
2022/11/30 03:38:51;;;;;;;58.70;52.55;;;;;;;4.00;100.00;101860.00;5048024;28;20112;-84
2022/11/30 03:41:18;;;;;;;66.88;59.58;;;;;;;4.04;100.00;101866.66;5048220;28;20057;-84
2022/11/30 03:43:46;;;;;;;63.00;56.17;;;;;;;3.52;100.00;101854.59;5047978;28;20041;-81
2022/11/30 03:46:14;;;;;;;66.13;59.10;;;;;;;3.53;100.00;101859.72;5048052;28;20045;-84
2022/11/30 03:48:41;;;;;;;56.72;50.28;;;;;;;3.64;100.00;101851.75;5049228;28;20393;-81
2022/11/30 03:51:09;;;;;;;65.78;54.50;;;;;;;3.51;100.00;101847.66;5048526;28;20563;-81
2022/11/30 03:53:38;;;;;;;59.88;53.85;;;;;;;4.96;100.00;101842.59;5048793;28;20104;-85
2022/11/30 03:56:07;;;;;;;59.95;54.13;;;;;;;4.86;100.00;101851.47;5052919;28;20469;-84
2022/11/30 03:58:34;;;;;;;61.35;55.55;;;;;;;4.90;100.00;101835.25;5045679;28;20504;-84
2022/11/30 04:01:02;;;;;;;62.40;56.83;;;;;;;5.49;100.00;101847.28;5041780;28;20052;-83
2022/11/30 04:03:29;;;;;;;61.28;55.58;;;;;;;3.76;100.00;101851.66;5050643;28;20115;-84
2022/11/30 04:05:56;;;;;;;57.78;52.58;;;;;;;4.39;100.00;101851.34;5048492;28;20050;-82
2022/11/30 04:08:23;;;;;;;66.93;60.58;;;;;;;3.65;100.00;101853.41;5051315;28;20072;-81
2022/11/30 04:10:52;;;;;;;54.70;49.35;;;;;;;4.96;100.00;101852.28;5050940;28;20049;-83
2022/11/30 04:13:19;;;;;;;61.67;56.08;;;;;;;3.92;100.00;101851.97;5049739;28;20104;-86
2022/11/30 04:15:47;;;;;;;58.85;53.80;;;;;;;4.23;100.00;101851.88;5048996;28;20045;-85
2022/11/30 04:18:14;;;;;;;62.70;57.53;;;;;;;5.34;100.00;101858.44;5051549;28;20053;-83
2022/11/30 04:20:41;;;;;;;60.05;54.95;;;;;;;4.11;100.00;101859.06;5046309;28;20119;-82
2022/11/30 04:23:08;;;;;;;57.83;52.30;;;;;;;4.67;100.00;101863.69;5043378;28;20041;-86
2022/11/30 04:25:37;;;;;;;55.13;50.13;;;;;;;4.37;100.00;101862.00;5050270;28;20128;-81
2022/11/30 04:28:05;;;;;;;60.72;55.78;;;;;;;3.99;100.00;101858.34;5050396;28;20045;-84
2022/11/30 04:30:32;;;;;;;61.80;55.92;;;;;;;3.84;100.00;101857.91;5045169;28;20056;-81
2022/11/30 04:32:59;;;;;;;56.70;51.67;;;;;;;3.75;100.00;101865.72;5055492;28;20469;-83
2022/11/30 04:35:27;;;;;;;69.82;63.75;;;;;;;3.93;100.00;101855.41;5051437;28;20052;-82
2022/11/30 04:37:54;;;;;;;67.15;61.40;;;;;;;4.28;100.00;101866.28;5049073;28;20048;-83
2022/11/30 04:40:21;;;;;;;72.93;66.97;;;;;;;4.86;100.00;101872.53;5048130;28;20053;-83
2022/11/30 04:42:48;;;;;;;76.40;69.30;;;;;;;4.81;100.00;101857.13;5051221;28;20045;-83
2022/11/30 04:45:16;;;;;;;52.20;47.90;;;;;;;3.67;100.00;101858.53;5048473;28;20053;-83
2022/11/30 04:47:42;;;;;;;53.17;48.50;;;;;;;4.84;100.00;101864.75;5042961;28;20493;-83
2022/11/30 04:50:09;;;;;;;55.03;50.55;;;;;;;5.09;100.00;101865.16;5050463;28;20053;-83
2022/11/30 04:52:36;;;;;;;54.67;50.30;;;;;;;3.82;100.00;101867.72;5049916;28;20049;-83
2022/11/30 04:55:04;;;;;;;56.85;51.92;;;;;;;4.09;100.00;101866.28;5052095;28;20110;-82
2022/11/30 04:57:31;;;;;;;53.22;48.50;;;;;;;3.84;100.00;101857.91;5053035;28;20448;-81
2022/11/30 04:59:58;;;;;;;51.72;46.92;;;;;;;4.79;100.00;101864.38;5051941;28;20049;-84
2022/11/30 05:02:29;;;;;;;47.63;43.97;;;;;;;4.48;100.00;101866.28;5052108;28;20068;-84
2022/11/30 05:04:56;;;;;;;51.38;46.83;;;;;;;3.81;100.00;101873.94;5048987;28;20057;-81
2022/11/30 05:07:22;;;;;;;51.90;47.83;;;;;;;4.83;100.00;101868.38;5047707;28;20476;-82
2022/11/30 05:09:49;;;;;;;48.45;44.47;;;;;;;4.33;100.00;101876.41;5052720;28;20107;-84
2022/11/30 05:12:16;;;;;;;48.10;44.17;;;;;;;5.43;100.00;101873.38;5055831;28;20055;-83
2022/11/30 05:14:42;;;;;;;52.38;48.15;;;;;;;4.03;100.00;101870.25;5049686;28;20456;-84
2022/11/30 05:17:09;;;;;;;50.83;46.58;;;;;;;4.33;100.00;101889.56;5052275;28;20119;-82
2022/11/30 05:19:37;;;;;;;53.40;49.03;;;;;;;5.40;100.00;101881.56;5049976;28;20060;-83
2022/11/30 05:22:04;;;;;;;47.95;44.33;;;;;;;5.11;100.00;101871.09;5053828;28;20076;-84
2022/11/30 05:24:31;;;;;;;46.53;42.67;;;;;;;4.52;100.00;101889.56;5048942;28;20099;-84
2022/11/30 05:26:58;;;;;;;47.50;43.70;;;;;;;4.17;100.00;101876.91;5045561;28;20056;-83
2022/11/30 05:29:25;;;;;;;46.08;42.30;;;;;;;3.59;100.00;101884.63;5052290;28;20388;-81
2022/11/30 05:31:52;;;;;;;50.15;45.67;;;;;;;3.34;100.00;101891.97;5052013;28;20111;-83
2022/11/30 05:34:18;;;;;;;47.03;43.08;;;;;;;3.76;100.00;101896.31;5045374;28;20044;-83
2022/11/30 05:36:47;;;;;;;48.95;44.35;;;;;;;3.20;100.00;101902.81;5052540;28;20052;-83
2022/11/30 05:39:13;;;;;;;45.80;41.70;;;;;;;3.34;100.00;101902.47;5050709;28;20052;-81
2022/11/30 05:41:40;;;;;;;47.92;43.60;;;;;;;3.15;100.00;101905.81;5054249;28;20469;-82
2022/11/30 05:44:08;;;;;;;48.10;43.80;;;;;;;3.71;100.00;101901.97;5048054;28;20119;-83
2022/11/30 05:46:35;;;;;;;45.83;41.80;;;;;;;3.34;100.00;101909.53;5051718;28;20041;-82
2022/11/30 05:49:01;;;;;;;49.65;45.17;;;;;;;3.60;100.00;101916.03;5049202;28;20053;-80
2022/11/30 05:51:28;;;;;;;49.95;45.30;;;;;;;3.18;100.00;101923.13;5048185;28;20045;-82
2022/11/30 05:53:58;;;;;;;51.60;46.92;;;;;;;4.06;100.00;101917.31;5047076;28;20045;-83
2022/11/30 05:56:25;;;;;;;54.15;49.25;;;;;;;3.50;100.00;101917.75;5051112;28;20466;-82
2022/11/30 05:58:51;;;;;;;50.35;45.90;;;;;;;3.54;100.00;101920.97;5046460;28;20042;-81
2022/11/30 06:01:28;;;;;;;51.67;46.78;;;;;;;3.41;100.00;101918.53;5023954;28;20075;-83
2022/11/30 06:03:55;;;;;;;54.33;49.45;;;;;;;3.32;100.00;101925.41;5051255;28;20056;-84
2022/11/30 06:06:23;;;;;;;52.58;47.60;;;;;;;3.31;100.00;101933.44;5048192;28;20052;-81
2022/11/30 06:08:50;;;;;;;54.38;49.33;;;;;;;3.11;100.00;101935.06;5048486;28;20108;-81
2022/11/30 06:11:18;;;;;;;51.67;46.65;;;;;;;3.32;100.00;101928.03;5046356;28;20052;-82
2022/11/30 06:13:45;;;;;;;51.13;46.20;;;;;;;3.86;100.00;101955.84;5052277;28;20055;-81
2022/11/30 06:16:12;;;;;;;50.05;45.75;;;;;;;4.66;100.00;101951.50;5051997;28;20088;-82
2022/11/30 06:18:40;;;;;;;52.58;47.63;;;;;;;3.78;100.00;101952.19;5040143;28;20131;-82
2022/11/30 06:21:20;;;;;;;57.13;51.72;;;;;;;4.16;100.00;101962.03;5054400;28;20051;-84
2022/11/30 06:23:48;;;;;;;58.60;53.10;;;;;;;3.82;100.00;101964.13;5052261;28;20535;-84
2022/11/30 06:26:17;;;;;;;54.72;49.83;;;;;;;3.69;100.00;101966.94;5052934;28;20060;-81
2022/11/30 06:28:56;;;;;;;56.40;50.83;;;;;;;3.63;100.00;101968.31;5043903;28;20045;-81
2022/11/30 06:31:23;;;;;;;48.45;43.95;;;;;;;3.94;100.00;101973.59;5052706;28;20053;-83
2022/11/30 06:33:50;;;;;;;49.95;45.25;;;;;;;3.63;100.00;101976.22;5050218;28;20123;-81
2022/11/30 06:36:22;;;;;;;52.30;47.88;;;;;;;3.63;100.00;101975.34;5054525;28;20048;-83
2022/11/30 06:38:49;;;;;;;49.23;44.80;;;;;;;4.96;100.00;101970.75;5053998;28;20530;-83
2022/11/30 06:41:23;;;;;;;52.90;47.95;;;;;;;4.39;100.00;101975.81;5054320;28;20122;-81
2022/11/30 06:43:51;;;;;;;54.15;49.08;;;;;;;3.87;100.00;101981.19;5047133;28;20057;-81
2022/11/30 06:46:20;;;;;;;52.83;48.08;;;;;;;4.21;100.00;101977.44;5038237;28;20049;-84
2022/11/30 06:49:00;;;;;;;55.03;49.83;;;;;;;3.53;100.00;101966.59;5049988;28;20480;-83
2022/11/30 06:51:28;;;;;;;53.97;49.08;;;;;;;3.98;100.00;101961.84;5042838;28;20428;-81
2022/11/30 06:53:56;;;;;;;49.28;44.88;;;;;;;4.25;100.00;101960.41;5054342;28;20053;-81
2022/11/30 06:56:24;;;;;;;52.00;47.40;;;;;;;4.94;100.00;101965.66;5034550;28;20458;-86
2022/11/30 06:58:57;;;;;;;49.22;45.30;;;;;;;4.26;100.00;101959.44;5049677;28;20103;-83
2022/11/30 07:01:24;;;;;;;51.42;47.20;;;;;;;4.11;100.00;101965.09;5052184;28;20083;-81
2022/11/30 07:03:51;;;;;;;51.00;46.42;;;;;;;4.15;100.00;101977.97;5052654;28;20397;-84
2022/11/30 07:06:17;;;;;;;49.08;44.92;;;;;;;3.76;100.00;101977.78;5051006;28;20076;-82
2022/11/30 07:08:44;;;;;;;48.88;44.78;;;;;;;3.84;100.00;101975.31;5050176;28;20045;-83
2022/11/30 07:11:12;;;;;;;48.78;44.42;;;;;;;3.82;100.00;101980.72;5048710;28;20046;-83
2022/11/30 07:13:42;;;;;;;47.38;43.65;;;;;;;3.61;100.00;101987.81;5051574;28;20074;-83
2022/11/30 07:16:11;;;;;;;49.00;45.00;;;;;;;3.41;100.00;101989.47;5054045;28;20045;-85
2022/11/30 07:18:38;;;;;;;45.13;41.15;;;;;;;3.90;100.00;101990.56;5042283;28;20128;-83
2022/11/30 07:21:07;;;;;;;45.38;41.67;;;;;;;4.36;100.00;101984.81;5039751;28;20041;-80
2022/11/30 07:26:18;;;;;;;46.88;43.08;;;;;;;4.25;100.00;101982.28;5052902;28;20056;-84
2022/11/30 07:28:49;;;;;;;51.72;47.92;;;;;;;3.79;100.00;101977.53;5050154;28;20055;-83
2022/11/30 07:31:18;;;;;;;46.28;42.78;;;;;;;4.07;100.00;101963.66;5051165;28;20509;-82
2022/11/30 07:33:45;;;;;;;45.47;42.08;;;;;;;4.81;100.00;101957.16;5051271;28;20053;-83
2022/11/30 07:36:12;;;;;;;45.03;41.72;;;;;;;4.44;100.00;101968.34;5043228;28;20049;-81
2022/11/30 07:38:39;;;;;;;45.78;42.38;;;;;;;4.90;100.00;101964.28;5050255;28;20045;-80
2022/11/30 07:41:06;;;;;;;47.00;43.78;;;;;;;5.20;100.00;101967.69;5051230;28;20124;-84
2022/11/30 07:43:33;;;;;;;47.33;43.75;;;;;;;3.94;100.00;101973.59;5051082;28;20453;-81
2022/11/30 07:46:03;;;;;;;48.30;44.60;;;;;;;3.77;100.00;101980.28;5050655;28;20045;-83
2022/11/30 07:48:32;;;;;;;47.20;43.47;;;;;;;3.76;100.00;101972.53;5044610;28;20044;-84
2022/11/30 07:51:03;;;;;;;46.40;42.88;;;;;;;3.98;100.00;101982.03;5034754;28;20042;-81
2022/11/30 07:53:30;;;;;;;50.35;46.72;;;;;;;4.82;100.00;101972.00;5053191;28;20152;-84
2022/11/30 07:56:11;;;;;;;47.95;44.45;;;;;;;4.05;100.00;101978.75;5054027;28;20045;-82
2022/11/30 07:58:38;;;;;;;47.17;43.70;;;;;;;4.44;100.00;101984.13;5044693;28;20044;-84
2022/11/30 08:01:08;;;;;;;45.13;41.65;;;;;;;4.47;100.00;101981.22;5048646;28;20045;-83
2022/11/30 08:03:36;;;;;;;45.33;41.90;;;;;;;3.96;100.00;101973.44;5046640;28;20107;-81
2022/11/30 08:06:05;;;;;;;48.53;45.10;;;;;;;4.06;100.00;101975.16;5051262;28;20053;-82
2022/11/30 08:08:34;;;;;;;46.65;43.35;;;;;;;3.96;100.00;101958.50;5053772;28;20044;-82
2022/11/30 08:11:02;;;;;;;44.55;41.33;;;;;;;4.73;100.00;101963.13;5056409;28;20053;-82
2022/11/30 08:13:30;;;;;;;46.50;42.90;;;;;;;4.32;100.00;101959.72;5055252;28;20040;-84
2022/11/30 08:16:01;;;;;;;46.63;43.22;;;;;;;4.59;100.00;101966.97;5047118;28;20096;-85
2022/11/30 08:18:29;;;;;;;49.08;45.70;;;;;;;4.61;100.00;101972.13;5053667;28;20045;-83
2022/11/30 08:20:58;;;;;;;46.75;43.55;;;;;;;4.70;100.00;101981.00;5053205;28;20504;-84
2022/11/30 08:23:25;;;;;;;50.03;46.10;;;;;;;4.08;100.00;101981.09;5053903;28;20610;-84
2022/11/30 08:25:52;;;;;;;45.83;42.47;;;;;;;4.56;100.00;101979.59;5055699;28;20044;-82
2022/11/30 08:28:19;;;;;;;52.03;47.35;;;;;;;3.93;100.00;101974.53;5051656;28;20045;-83
2022/11/30 08:30:45;;;;;;;53.45;49.25;;;;;;;3.81;100.00;101975.59;5049606;28;20048;-82
2022/11/30 08:33:12;;;;;;;51.22;47.22;;;;;;;3.72;100.00;101979.00;5055249;28;20049;-84
2022/11/30 08:35:40;;;;;;;48.80;44.70;;;;;;;3.91;100.00;101973.84;5055331;28;20045;-84
2022/11/30 08:38:07;;;;;;;52.00;47.72;;;;;;;3.62;100.00;101981.56;5052950;28;20045;-82
2022/11/30 08:40:34;;;;;;;47.47;43.90;;;;;;;4.36;100.00;101976.09;5048087;28;20107;-85
2022/11/30 08:43:00;;;;;;;47.97;44.17;;;;;;;4.19;100.00;101979.34;5051207;28;20045;-84
2022/11/30 08:45:27;;;;;;;48.97;45.33;;;;;;;4.25;100.00;101986.72;5047454;28;20049;-83
2022/11/30 08:47:54;;;;;;;46.38;42.90;;;;;;;4.04;100.00;101978.88;5051491;28;20131;-85
2022/11/30 08:50:21;;;;;;;47.13;43.83;;;;;;;4.53;100.00;101977.22;5054450;28;20048;-83
2022/11/30 08:52:49;;;;;;;44.88;41.70;;;;;;;4.16;100.00;101969.94;5048634;28;20476;-82
2022/11/30 08:55:16;;;;;;;45.78;42.22;;;;;;;4.71;100.00;101980.84;5048657;28;20053;-85
2022/11/30 08:57:43;;;;;;;47.67;43.97;;;;;;;3.65;100.00;101973.44;5054213;28;20458;-82
2022/11/30 09:00:11;;;;;;;49.97;46.00;;;;;;;3.77;100.00;101976.81;5055979;28;20048;-82
2022/11/30 09:02:38;;;;;;;46.03;42.53;;;;;;;3.81;100.00;101981.69;5053093;28;20060;-82
2022/11/30 09:05:11;;;;;;;47.47;43.67;;;;;;;3.55;100.00;101985.69;5052063;28;20044;-84
2022/11/30 09:07:37;;;;;;;43.67;40.33;;;;;;;4.13;100.00;101983.34;5051596;28;20049;-83
2022/11/30 09:10:10;;;;;;;47.35;43.75;;;;;;;3.78;100.00;101981.09;5056334;28;20378;-83
2022/11/30 09:12:39;;;;;;;46.17;42.42;;;;;;;4.08;100.00;101969.75;5056590;28;20115;-83
2022/11/30 09:15:07;;;;;;;48.00;44.38;;;;;;;4.18;100.00;101973.28;5045598;28;20045;-85
2022/11/30 09:17:34;;;;;;;45.58;41.90;;;;;;;3.84;100.00;101960.41;5048765;28;20462;-82
2022/11/30 09:20:01;;;;;;;44.90;41.42;;;;;;;4.88;100.00;101966.19;5048020;28;20045;-82
2022/11/30 09:22:29;;;;;;;48.65;44.90;;;;;;;4.86;100.00;101947.06;5048277;28;20041;-81
2022/11/30 09:24:56;;;;;;;47.28;43.78;;;;;;;4.13;100.00;101954.41;5046095;28;20520;-84
2022/11/30 09:27:29;;;;;;;45.50;41.92;;;;;;;4.59;100.00;101945.94;5048215;28;20114;-82
2022/11/30 09:29:55;;;;;;;46.92;43.22;;;;;;;4.98;100.00;101935.44;5049789;28;20041;-83
2022/11/30 09:32:22;;;;;;;42.75;39.65;;;;;;;4.98;100.00;101939.88;5053578;28;20148;-83
2022/11/30 09:34:49;;;;;;;47.72;44.17;;;;;;;4.86;100.00;101940.97;5053269;28;20067;-82
2022/11/30 09:37:16;;;;;;;47.67;44.22;;;;;;;4.25;100.00;101936.75;5046853;28;20457;-81
2022/11/30 09:39:44;;;;;;;52.30;48.30;;;;;;;4.52;100.00;101936.94;5051142;28;20087;-83
2022/11/30 09:42:42;;;;;;;51.72;47.42;;;;;;;3.69;100.00;101932.78;5052279;28;20053;-81
2022/11/30 09:45:16;;;;;;;50.20;45.95;;;;;;;4.22;100.00;101947.53;5052089;28;20119;-81
2022/11/30 09:48:20;;;;;;;51.95;47.95;;;;;;;4.80;100.00;101940.53;5053559;28;20448;-82
2022/11/30 09:50:49;;;;;;;53.13;49.15;;;;;;;5.38;100.00;101946.75;5046235;28;20057;-82
2022/11/30 09:53:27;;;;;;;48.40;44.72;;;;;;;4.39;100.00;101939.00;5046037;28;21331;-83
2022/11/30 09:56:08;;;;;;;48.97;45.13;;;;;;;4.54;100.00;101949.97;5052795;28;20037;-82
2022/11/30 09:58:49;;;;;;;50.05;46.15;;;;;;;4.19;100.00;101953.06;5051156;28;20129;-84
2022/11/30 10:01:18;;;;;;;51.55;47.58;;;;;;;4.04;100.00;101963.09;5051219;28;20541;-83
2022/11/30 10:03:45;;;;;;;55.97;51.20;;;;;;;3.79;100.00;101967.03;5051234;28;20060;-81
2022/11/30 10:06:22;;;;;;;46.15;42.35;;;;;;;4.50;100.00;101962.53;5050615;28;20057;-85
2022/11/30 10:09:01;;;;;;;49.67;46.08;;;;;;;5.42;100.00;101951.59;5047598;28;20195;-81
2022/11/30 10:11:53;;;;;;;47.70;44.42;;;;;;;5.54;100.00;101940.88;5053211;28;20048;-82
2022/11/30 10:14:32;;;;;;;;;;;;;;;5.60;100.00;101941.16;5046892;28;20049;-82
2022/11/30 10:17:14;;;;;;;50.33;46.72;;;;;;;4.29;100.00;101941.59;5043884;28;20369;-83
2022/11/30 10:19:56;;;;;;;49.58;45.85;;;;;;;4.73;100.00;101933.34;5045294;28;20041;-83
2022/11/30 10:22:33;;;;;;;50.97;47.22;;;;;;;5.65;100.00;101938.06;5050598;28;20053;-81
2022/11/30 10:25:36;;;;;;;49.70;45.97;;;;;;;5.37;100.00;101931.91;5050855;28;20170;-86
2022/11/30 10:28:33;;;;;;;49.53;46.08;;;;;;;4.81;100.00;101933.47;5048713;28;20124;-83
2022/11/30 10:31:16;;;;;;;50.00;46.60;;;;;;;4.89;100.00;101940.69;5047652;28;20061;-84
2022/11/30 10:33:49;;;;;;;48.20;44.95;;;;;;;5.13;100.00;101937.63;5039089;28;20059;-85
2022/11/30 10:36:27;;;;;;;57.72;52.42;;;;;;;4.08;100.00;101931.16;5050878;28;21304;-83
2022/11/30 10:39:04;;;;;;;48.50;44.75;;;;;;;4.46;100.00;101926.13;5048202;28;20059;-84
2022/11/30 10:41:35;;;;;;;47.38;43.78;;;;;;;4.08;100.00;101925.88;5049353;28;20056;-83
2022/11/30 10:44:12;;;;;;;45.55;42.25;;;;;;;4.87;100.00;101927.69;5048797;28;20195;-84
2022/11/30 10:46:52;;;;;;;45.97;42.75;;;;;;;4.15;100.00;101917.50;5050055;28;20123;-83
2022/11/30 10:49:22;;;;;;;43.83;40.90;;;;;;;5.63;100.00;101919.78;5048636;28;20064;-81
2022/11/30 10:52:01;;;;;;;44.42;41.42;;;;;;;4.47;100.00;101920.72;5048682;28;20080;-86
2022/11/30 10:54:30;;;;;;;47.92;44.45;;;;;;;4.81;100.00;101910.66;5049207;28;20049;-84
2022/11/30 10:57:02;;;;;;;46.13;42.78;;;;;;;4.96;100.00;101908.41;5050796;28;20051;-82
2022/11/30 10:59:45;;;;;;;44.42;41.17;;;;;;;4.55;100.00;101905.09;5050514;28;20044;-82
2022/11/30 11:02:38;;;;;;;47.90;43.95;;;;;;;4.31;100.00;101909.91;5051814;28;20137;-83
2022/11/30 11:05:17;;;;;;;47.60;43.88;;;;;;;3.94;100.00;101907.88;5051136;28;20068;-81
2022/11/30 11:07:50;;;;;;;48.50;44.90;;;;;;;4.34;100.00;101914.88;5051065;28;20126;-84
2022/11/30 11:10:30;;;;;;;45.33;41.95;;;;;;;4.62;100.00;101922.94;5045093;28;20088;-83
2022/11/30 11:13:06;;;;;;;47.35;44.05;;;;;;;5.16;100.00;101909.22;5052047;28;20477;-85
2022/11/30 11:15:38;;;;;;;48.58;44.92;;;;;;;5.08;100.00;101905.63;5052321;28;20457;-83
2022/11/30 11:18:25;;;;;;;48.58;45.30;;;;;;;6.25;100.00;101911.31;5044618;28;20503;-84
2022/11/30 11:21:05;;;;;;;51.38;47.75;;;;;;;4.34;100.00;101910.47;5044103;28;20045;-83
2022/11/30 11:23:42;;;;;;;49.58;45.78;;;;;;;4.46;100.00;101910.34;5049084;28;20049;-85
2022/11/30 11:26:22;;;;;;;48.30;44.58;;;;;;;4.63;100.00;101909.69;5050334;28;20060;-84